Time;durP1;ratioP1;P1;durP2;ratioP2;P2;SDS_P1;SDS_P2;PMS_P1;PMS_P2;Temp;Humidity;BMP_temperature;BMP_pressure;BME280_temperature;BME280_humidity;BME280_pressure;Samples;Min_cycle;Max_cycle;Signal;HPM_P1;HPM_P2
2022/09/30 00:00:00;;;;;;;1.6;1.6;;;;;;;8.1;100.0;100560;;;;
2022/09/30 00:01:00;;;;;;;1.6;1.6;;;;;;;8.1;100.0;100560;;;;
2022/09/30 00:02:00;;;;;;;1.6;1.6;;;;;;;8.1;100.0;100560;;;;
2022/09/30 00:03:00;;;;;;;1.6;1.6;;;;;;;8.1;100.0;100560;;;;
2022/09/30 00:04:00;;;;;;;1.6;1.6;;;;;;;8.1;100.0;100550;;;;
2022/09/30 00:05:00;;;;;;;1.6;1.6;;;;;;;8.1;100.0;100550;;;;
2022/09/30 00:06:08;;;;;;;1.6;1.6;;;;;;;8.1;100.0;100560;;;;
2022/09/30 00:07:00;;;;;;;1.6;1.6;;;;;;;8.1;100.0;100560;;;;
2022/09/30 00:08:00;;;;;;;1.6;1.6;;;;;;;8.1;100.0;100560;;;;
2022/09/30 00:09:01;;;;;;;1.6;1.6;;;;;;;8.1;100.0;100560;;;;
2022/09/30 00:10:00;;;;;;;1.6;1.6;;;;;;;8.1;100.0;100560;;;;
2022/09/30 00:11:03;;;;;;;1.6;1.6;;;;;;;8.1;100.0;100560;;;;
2022/09/30 00:12:00;;;;;;;1.6;1.6;;;;;;;8.1;100.0;100570;;;;
2022/09/30 00:13:00;;;;;;;1.6;1.6;;;;;;;8.1;100.0;100570;;;;
2022/09/30 00:14:00;;;;;;;1.6;1.6;;;;;;;8.1;100.0;100570;;;;
2022/09/30 00:15:00;;;;;;;1.1;1.1;;;;;;;8.1;100.0;100570;;;;
2022/09/30 00:16:00;;;;;;;1.1;1.1;;;;;;;7.9;100.0;100580;;;;
2022/09/30 00:17:00;;;;;;;1.1;1.1;;;;;;;7.9;100.0;100580;;;;
2022/09/30 00:18:00;;;;;;;1.1;1.1;;;;;;;8.0;100.0;100580;;;;
2022/09/30 00:19:00;;;;;;;1.1;1.1;;;;;;;8.0;100.0;100580;;;;
2022/09/30 00:20:00;;;;;;;1.1;1.1;;;;;;;7.9;100.0;100580;;;;
2022/09/30 00:21:00;;;;;;;1.1;1.1;;;;;;;7.9;100.0;100580;;;;
2022/09/30 00:22:00;;;;;;;1.1;1.1;;;;;;;7.9;100.0;100580;;;;
2022/09/30 00:23:00;;;;;;;1.1;1.1;;;;;;;7.9;100.0;100580;;;;
2022/09/30 00:24:00;;;;;;;1.1;1.1;;;;;;;7.9;100.0;100580;;;;
2022/09/30 00:25:00;;;;;;;1.1;1.1;;;;;;;7.9;100.0;100580;;;;
2022/09/30 00:26:01;;;;;;;1.1;1.1;;;;;;;7.8;100.0;100580;;;;
2022/09/30 00:27:00;;;;;;;1.1;1.1;;;;;;;7.8;100.0;100580;;;;
2022/09/30 00:28:00;;;;;;;1.1;1.1;;;;;;;7.9;100.0;100580;;;;
2022/09/30 00:29:00;;;;;;;1.1;1.1;;;;;;;7.9;100.0;100580;;;;
2022/09/30 00:30:00;;;;;;;1.1;1.1;;;;;;;7.9;100.0;100580;;;;
2022/09/30 00:31:01;;;;;;;1.1;1.1;;;;;;;7.9;100.0;100580;;;;
2022/09/30 00:32:00;;;;;;;1.1;1.1;;;;;;;7.9;100.0;100580;;;;
2022/09/30 00:33:00;;;;;;;1.1;1.1;;;;;;;7.9;100.0;100580;;;;
2022/09/30 00:34:07;;;;;;;1.1;1.1;;;;;;;7.8;100.0;100570;;;;
2022/09/30 00:35:00;;;;;;;1.4;1.4;;;;;;;7.8;100.0;100570;;;;
2022/09/30 00:36:00;;;;;;;1.4;1.4;;;;;;;7.9;100.0;100570;;;;
2022/09/30 00:37:01;;;;;;;1.4;1.4;;;;;;;7.9;100.0;100570;;;;
2022/09/30 00:38:00;;;;;;;1.4;1.4;;;;;;;7.8;100.0;100570;;;;
2022/09/30 00:39:00;;;;;;;1.4;1.4;;;;;;;7.8;100.0;100570;;;;
2022/09/30 00:40:00;;;;;;;1.4;1.4;;;;;;;7.9;100.0;100580;;;;
2022/09/30 00:41:00;;;;;;;1.4;1.4;;;;;;;7.9;100.0;100580;;;;
2022/09/30 00:42:01;;;;;;;1.4;1.4;;;;;;;7.8;100.0;100580;;;;
2022/09/30 00:43:00;;;;;;;1.4;1.4;;;;;;;7.8;100.0;100580;;;;
2022/09/30 00:44:00;;;;;;;1.4;1.4;;;;;;;7.8;100.0;100570;;;;
2022/09/30 00:45:01;;;;;;;1.4;1.4;;;;;;;7.8;100.0;100570;;;;
2022/09/30 00:46:00;;;;;;;1.4;1.4;;;;;;;7.6;100.0;100570;;;;
2022/09/30 00:47:00;;;;;;;1.4;1.4;;;;;;;7.6;100.0;100570;;;;
2022/09/30 00:48:06;;;;;;;1.4;1.4;;;;;;;7.7;100.0;100570;;;;
2022/09/30 00:49:04;;;;;;;1.4;1.4;;;;;;;7.7;100.0;100570;;;;
2022/09/30 00:50:10;;;;;;;1.4;1.4;;;;;;;7.7;100.0;100580;;;;
2022/09/30 00:51:01;;;;;;;1.4;1.4;;;;;;;7.7;100.0;100580;;;;
2022/09/30 00:52:00;;;;;;;1.4;1.4;;;;;;;7.8;100.0;100570;;;;
2022/09/30 00:53:00;;;;;;;1.4;1.4;;;;;;;7.8;100.0;100570;;;;
2022/09/30 00:54:02;;;;;;;1.4;1.4;;;;;;;7.7;100.0;100570;;;;
2022/09/30 00:55:01;;;;;;;1.7;1.6;;;;;;;7.7;100.0;100570;;;;
2022/09/30 00:56:02;;;;;;;1.7;1.6;;;;;;;7.6;100.0;100570;;;;
2022/09/30 00:57:02;;;;;;;1.7;1.6;;;;;;;7.6;100.0;100570;;;;
2022/09/30 00:58:03;;;;;;;1.7;1.6;;;;;;;7.7;100.0;100580;;;;
2022/09/30 00:59:01;;;;;;;1.7;1.6;;;;;;;7.7;100.0;100580;;;;
2022/09/30 01:00:00;;;;;;;1.7;1.6;;;;;;;7.7;100.0;100580;;;;
2022/09/30 01:01:01;;;;;;;1.7;1.6;;;;;;;7.7;100.0;100580;;;;
2022/09/30 01:02:00;;;;;;;1.7;1.6;;;;;;;7.7;100.0;100580;;;;
2022/09/30 01:03:01;;;;;;;1.7;1.6;;;;;;;7.7;100.0;100580;;;;
2022/09/30 01:04:03;;;;;;;1.7;1.6;;;;;;;7.7;100.0;100580;;;;
2022/09/30 01:05:01;;;;;;;1.7;1.6;;;;;;;7.7;100.0;100580;;;;
2022/09/30 01:06:00;;;;;;;1.7;1.6;;;;;;;7.6;100.0;100580;;;;
2022/09/30 01:07:03;;;;;;;1.7;1.6;;;;;;;7.6;100.0;100580;;;;
2022/09/30 01:08:01;;;;;;;1.7;1.6;;;;;;;7.6;100.0;100580;;;;
2022/09/30 01:09:00;;;;;;;1.7;1.6;;;;;;;7.6;100.0;100580;;;;
2022/09/30 01:10:00;;;;;;;1.7;1.6;;;;;;;7.5;100.0;100580;;;;
2022/09/30 01:11:05;;;;;;;1.7;1.6;;;;;;;7.5;100.0;100580;;;;
2022/09/30 01:12:04;;;;;;;1.7;1.6;;;;;;;7.6;100.0;100580;;;;
2022/09/30 01:13:00;;;;;;;1.7;1.6;;;;;;;7.6;100.0;100580;;;;
2022/09/30 01:14:10;;;;;;;1.7;1.6;;;;;;;7.6;100.0;100580;;;;
2022/09/30 01:15:00;;;;;;;1.3;1.3;;;;;;;7.6;100.0;100580;;;;
2022/09/30 01:16:05;;;;;;;1.3;1.3;;;;;;;7.5;100.0;100570;;;;
2022/09/30 01:17:10;;;;;;;1.3;1.3;;;;;;;7.5;100.0;100580;;;;
2022/09/30 01:18:08;;;;;;;1.3;1.3;;;;;;;7.5;100.0;100580;;;;
2022/09/30 01:19:00;;;;;;;1.3;1.3;;;;;;;7.5;100.0;100580;;;;
2022/09/30 01:20:10;;;;;;;1.3;1.3;;;;;;;7.4;100.0;100580;;;;
2022/09/30 01:21:00;;;;;;;1.3;1.3;;;;;;;7.4;100.0;100580;;;;
2022/09/30 01:22:10;;;;;;;1.3;1.3;;;;;;;7.3;100.0;100580;;;;
2022/09/30 01:23:07;;;;;;;1.3;1.3;;;;;;;7.4;100.0;100580;;;;
2022/09/30 01:24:10;;;;;;;1.3;1.3;;;;;;;7.4;100.0;100580;;;;
2022/09/30 01:25:07;;;;;;;1.3;1.3;;;;;;;7.4;100.0;100580;;;;
2022/09/30 01:26:07;;;;;;;1.3;1.3;;;;;;;7.4;100.0;100580;;;;
2022/09/30 01:27:10;;;;;;;1.3;1.3;;;;;;;7.3;100.0;100580;;;;
2022/09/30 01:28:10;;;;;;;1.3;1.3;;;;;;;7.3;100.0;100580;;;;
2022/09/30 01:29:10;;;;;;;1.3;1.3;;;;;;;7.4;100.0;100580;;;;
2022/09/30 01:30:00;;;;;;;1.3;1.3;;;;;;;7.4;100.0;100580;;;;
2022/09/30 01:31:10;;;;;;;1.3;1.3;;;;;;;7.3;100.0;100580;;;;
2022/09/30 01:32:04;;;;;;;1.3;1.3;;;;;;;7.3;100.0;100580;;;;
2022/09/30 01:33:10;;;;;;;1.3;1.3;;;;;;;7.3;100.0;100580;;;;
2022/09/30 01:34:05;;;;;;;1.3;1.3;;;;;;;7.3;100.0;100580;;;;
2022/09/30 01:35:03;;;;;;;1.8;1.8;;;;;;;7.3;100.0;100580;;;;
2022/09/30 01:36:05;;;;;;;1.8;1.8;;;;;;;7.4;100.0;100580;;;;
2022/09/30 01:37:10;;;;;;;1.8;1.8;;;;;;;7.3;100.0;100580;;;;
2022/09/30 01:38:08;;;;;;;1.8;1.8;;;;;;;7.3;100.0;100580;;;;
2022/09/30 01:39:10;;;;;;;1.8;1.8;;;;;;;7.3;100.0;100580;;;;
2022/09/30 01:40:10;;;;;;;1.8;1.8;;;;;;;7.3;100.0;100580;;;;
2022/09/30 01:41:10;;;;;;;1.8;1.8;;;;;;;7.2;100.0;100580;;;;
2022/09/30 01:42:00;;;;;;;1.8;1.8;;;;;;;7.2;100.0;100580;;;;
2022/09/30 01:43:10;;;;;;;1.8;1.8;;;;;;;7.3;100.0;100580;;;;
2022/09/30 01:44:05;;;;;;;1.8;1.8;;;;;;;7.3;100.0;100580;;;;
2022/09/30 01:45:07;;;;;;;1.8;1.8;;;;;;;7.2;100.0;100570;;;;
2022/09/30 01:46:01;;;;;;;1.8;1.8;;;;;;;7.2;100.0;100570;;;;
2022/09/30 01:47:06;;;;;;;1.8;1.8;;;;;;;7.2;100.0;100570;;;;
2022/09/30 01:48:08;;;;;;;1.8;1.8;;;;;;;7.3;100.0;100580;;;;
2022/09/30 01:49:06;;;;;;;1.8;1.8;;;;;;;7.3;100.0;100580;;;;
2022/09/30 01:50:00;;;;;;;1.8;1.8;;;;;;;7.2;100.0;100570;;;;
2022/09/30 01:51:04;;;;;;;1.8;1.8;;;;;;;7.2;100.0;100570;;;;
2022/09/30 01:52:07;;;;;;;1.8;1.8;;;;;;;7.2;100.0;100570;;;;
2022/09/30 01:53:00;;;;;;;1.8;1.8;;;;;;;7.2;100.0;100570;;;;
2022/09/30 01:54:05;;;;;;;1.8;1.8;;;;;;;7.2;100.0;100570;;;;
2022/09/30 01:55:00;;;;;;;1.4;1.4;;;;;;;7.2;100.0;100570;;;;
2022/09/30 01:56:01;;;;;;;1.4;1.4;;;;;;;7.2;100.0;100580;;;;
2022/09/30 01:57:05;;;;;;;1.4;1.4;;;;;;;7.2;100.0;100580;;;;
2022/09/30 01:58:06;;;;;;;1.4;1.4;;;;;;;7.2;100.0;100570;;;;
2022/09/30 01:59:10;;;;;;;1.4;1.4;;;;;;;7.2;100.0;100580;;;;
2022/09/30 02:00:06;;;;;;;1.4;1.4;;;;;;;7.2;100.0;100580;;;;
2022/09/30 02:01:04;;;;;;;1.4;1.4;;;;;;;7.2;100.0;100580;;;;
2022/09/30 02:02:05;;;;;;;1.4;1.4;;;;;;;7.1;100.0;100580;;;;
2022/09/30 02:03:04;;;;;;;1.4;1.4;;;;;;;7.1;100.0;100580;;;;
2022/09/30 02:04:03;;;;;;;1.4;1.4;;;;;;;7.2;100.0;100580;;;;
2022/09/30 02:05:04;;;;;;;1.4;1.4;;;;;;;7.2;100.0;100580;;;;
2022/09/30 02:06:04;;;;;;;1.4;1.4;;;;;;;7.1;100.0;100580;;;;
2022/09/30 02:07:02;;;;;;;1.4;1.4;;;;;;;7.1;100.0;100580;;;;
2022/09/30 02:08:02;;;;;;;1.4;1.4;;;;;;;6.8;100.0;100580;;;;
2022/09/30 02:09:04;;;;;;;1.4;1.4;;;;;;;6.8;100.0;100580;;;;
2022/09/30 02:10:06;;;;;;;1.4;1.4;;;;;;;6.8;100.0;100580;;;;
2022/09/30 02:11:10;;;;;;;1.4;1.4;;;;;;;6.9;100.0;100580;;;;
2022/09/30 02:12:03;;;;;;;1.4;1.4;;;;;;;6.9;100.0;100580;;;;
2022/09/30 02:13:08;;;;;;;1.4;1.4;;;;;;;7.0;100.0;100590;;;;
2022/09/30 02:14:01;;;;;;;1.4;1.4;;;;;;;7.0;100.0;100590;;;;
2022/09/30 02:15:04;;;;;;;1.6;1.6;;;;;;;7.0;100.0;100590;;;;
2022/09/30 02:16:11;;;;;;;1.6;1.6;;;;;;;7.0;100.0;100580;;;;
2022/09/30 02:17:07;;;;;;;1.6;1.6;;;;;;;7.1;100.0;100580;;;;
2022/09/30 02:18:04;;;;;;;1.6;1.6;;;;;;;7.1;100.0;100580;;;;
2022/09/30 02:19:03;;;;;;;1.6;1.6;;;;;;;7.1;100.0;100580;;;;
2022/09/30 02:20:04;;;;;;;1.6;1.6;;;;;;;7.0;100.0;100580;;;;
2022/09/30 02:21:02;;;;;;;1.6;1.6;;;;;;;7.0;100.0;100580;;;;
2022/09/30 02:22:05;;;;;;;1.6;1.6;;;;;;;6.9;100.0;100590;;;;
2022/09/30 02:23:02;;;;;;;1.6;1.6;;;;;;;6.9;100.0;100590;;;;
2022/09/30 02:24:04;;;;;;;1.6;1.6;;;;;;;7.0;100.0;100590;;;;
2022/09/30 02:25:02;;;;;;;1.6;1.6;;;;;;;7.0;100.0;100590;;;;
2022/09/30 02:26:06;;;;;;;1.6;1.6;;;;;;;6.9;100.0;100580;;;;
2022/09/30 02:27:01;;;;;;;1.6;1.6;;;;;;;6.9;100.0;100580;;;;
2022/09/30 02:28:04;;;;;;;1.6;1.6;;;;;;;6.9;100.0;100590;;;;
2022/09/30 02:29:06;;;;;;;1.6;1.6;;;;;;;6.9;100.0;100590;;;;
2022/09/30 02:30:02;;;;;;;1.6;1.6;;;;;;;6.9;100.0;100590;;;;
2022/09/30 02:31:01;;;;;;;1.6;1.6;;;;;;;6.9;100.0;100590;;;;
2022/09/30 02:32:02;;;;;;;1.6;1.6;;;;;;;6.9;100.0;100590;;;;
2022/09/30 02:33:02;;;;;;;1.6;1.6;;;;;;;6.9;100.0;100590;;;;
2022/09/30 02:34:05;;;;;;;1.6;1.6;;;;;;;6.9;100.0;100590;;;;
2022/09/30 02:35:04;;;;;;;2.1;2.1;;;;;;;6.9;100.0;100590;;;;
2022/09/30 02:36:05;;;;;;;2.1;2.1;;;;;;;6.9;100.0;100580;;;;
2022/09/30 02:37:05;;;;;;;2.1;2.1;;;;;;;6.9;100.0;100580;;;;
2022/09/30 02:38:04;;;;;;;2.1;2.1;;;;;;;6.9;100.0;100580;;;;
2022/09/30 02:39:04;;;;;;;2.1;2.1;;;;;;;6.9;100.0;100580;;;;
2022/09/30 02:40:05;;;;;;;2.1;2.1;;;;;;;6.9;100.0;100580;;;;
2022/09/30 02:41:03;;;;;;;2.1;2.1;;;;;;;6.9;100.0;100580;;;;
2022/09/30 02:42:05;;;;;;;2.1;2.1;;;;;;;6.8;100.0;100580;;;;
2022/09/30 02:43:02;;;;;;;2.1;2.1;;;;;;;6.8;100.0;100580;;;;
2022/09/30 02:44:01;;;;;;;2.1;2.1;;;;;;;6.8;100.0;100580;;;;
2022/09/30 02:45:07;;;;;;;2.1;2.1;;;;;;;6.8;100.0;100580;;;;
2022/09/30 02:46:10;;;;;;;2.1;2.1;;;;;;;6.8;100.0;100570;;;;
2022/09/30 02:47:08;;;;;;;2.1;2.1;;;;;;;6.8;100.0;100580;;;;
2022/09/30 02:48:00;;;;;;;2.1;2.1;;;;;;;6.8;100.0;100580;;;;
2022/09/30 02:49:07;;;;;;;2.1;2.1;;;;;;;6.8;100.0;100580;;;;
2022/09/30 02:50:06;;;;;;;2.1;2.1;;;;;;;6.8;100.0;100580;;;;
2022/09/30 02:51:05;;;;;;;2.1;2.1;;;;;;;6.8;100.0;100580;;;;
2022/09/30 02:52:01;;;;;;;2.1;2.1;;;;;;;6.8;100.0;100580;;;;
2022/09/30 02:53:10;;;;;;;2.1;2.1;;;;;;;6.8;100.0;100580;;;;
2022/09/30 02:54:10;;;;;;;2.1;2.1;;;;;;;6.8;100.0;100580;;;;
2022/09/30 02:55:10;;;;;;;1.7;1.7;;;;;;;6.8;100.0;100580;;;;
2022/09/30 02:56:10;;;;;;;1.7;1.7;;;;;;;6.8;100.0;100580;;;;
2022/09/30 02:57:10;;;;;;;1.7;1.7;;;;;;;6.8;100.0;100580;;;;
2022/09/30 02:58:10;;;;;;;1.7;1.7;;;;;;;6.8;100.0;100580;;;;
2022/09/30 02:59:00;;;;;;;1.7;1.7;;;;;;;6.8;100.0;100580;;;;
2022/09/30 03:00:03;;;;;;;1.7;1.7;;;;;;;6.7;100.0;100580;;;;
2022/09/30 03:01:00;;;;;;;1.7;1.7;;;;;;;6.7;100.0;100580;;;;
2022/09/30 03:02:00;;;;;;;1.7;1.7;;;;;;;6.6;100.0;100580;;;;
2022/09/30 03:03:04;;;;;;;1.7;1.7;;;;;;;6.6;100.0;100580;;;;
2022/09/30 03:04:03;;;;;;;1.7;1.7;;;;;;;6.5;100.0;100590;;;;
2022/09/30 03:05:00;;;;;;;1.7;1.7;;;;;;;6.5;100.0;100590;;;;
2022/09/30 03:06:00;;;;;;;1.7;1.7;;;;;;;6.5;100.0;100590;;;;
2022/09/30 03:07:00;;;;;;;1.7;1.7;;;;;;;6.5;100.0;100590;;;;
2022/09/30 03:08:00;;;;;;;1.7;1.7;;;;;;;6.6;100.0;100590;;;;
2022/09/30 03:09:00;;;;;;;1.7;1.7;;;;;;;6.6;100.0;100590;;;;
2022/09/30 03:10:00;;;;;;;1.7;1.7;;;;;;;6.6;100.0;100590;;;;
2022/09/30 03:11:01;;;;;;;1.7;1.7;;;;;;;6.6;100.0;100590;;;;
2022/09/30 03:12:08;;;;;;;1.7;1.7;;;;;;;6.6;100.0;100590;;;;
2022/09/30 03:13:03;;;;;;;1.7;1.7;;;;;;;6.6;100.0;100590;;;;
2022/09/30 03:14:08;;;;;;;1.7;1.7;;;;;;;6.6;100.0;100590;;;;
2022/09/30 03:15:10;;;;;;;1.5;1.5;;;;;;;6.6;100.0;100590;;;;
2022/09/30 03:16:14;;;;;;;1.5;1.5;;;;;;;6.6;100.0;100590;;;;
2022/09/30 03:17:08;;;;;;;1.5;1.5;;;;;;;6.6;100.0;100590;;;;
2022/09/30 03:18:09;;;;;;;1.5;1.5;;;;;;;6.6;100.0;100590;;;;
2022/09/30 03:19:09;;;;;;;1.5;1.5;;;;;;;6.6;100.0;100590;;;;
2022/09/30 03:20:00;;;;;;;1.5;1.5;;;;;;;6.6;100.0;100590;;;;
2022/09/30 03:21:01;;;;;;;1.5;1.5;;;;;;;6.6;100.0;100590;;;;
2022/09/30 03:22:10;;;;;;;1.5;1.5;;;;;;;6.5;100.0;100590;;;;
2022/09/30 03:23:03;;;;;;;1.5;1.5;;;;;;;6.5;100.0;100590;;;;
2022/09/30 03:24:00;;;;;;;1.5;1.5;;;;;;;6.5;100.0;100590;;;;
2022/09/30 03:25:10;;;;;;;1.5;1.5;;;;;;;6.6;100.0;100590;;;;
2022/09/30 03:26:08;;;;;;;1.5;1.5;;;;;;;6.6;100.0;100590;;;;
2022/09/30 03:27:10;;;;;;;1.5;1.5;;;;;;;6.5;100.0;100590;;;;
2022/09/30 03:28:07;;;;;;;1.5;1.5;;;;;;;6.5;100.0;100590;;;;
2022/09/30 03:29:10;;;;;;;1.5;1.5;;;;;;;6.5;100.0;100590;;;;
2022/09/30 03:30:04;;;;;;;1.5;1.5;;;;;;;6.5;100.0;100590;;;;
2022/09/30 03:31:10;;;;;;;1.5;1.5;;;;;;;6.4;100.0;100600;;;;
2022/09/30 03:32:00;;;;;;;1.5;1.5;;;;;;;6.4;100.0;100600;;;;
2022/09/30 03:33:09;;;;;;;1.5;1.5;;;;;;;6.4;100.0;100610;;;;
2022/09/30 03:34:03;;;;;;;1.5;1.5;;;;;;;6.4;100.0;100610;;;;
2022/09/30 03:35:02;;;;;;;1.5;1.5;;;;;;;6.4;100.0;100610;;;;
2022/09/30 03:36:06;;;;;;;1.5;1.5;;;;;;;6.4;100.0;100610;;;;
2022/09/30 03:37:07;;;;;;;1.5;1.5;;;;;;;6.4;100.0;100610;;;;
2022/09/30 03:38:10;;;;;;;1.5;1.5;;;;;;;6.5;100.0;100610;;;;
2022/09/30 03:39:09;;;;;;;1.5;1.5;;;;;;;6.6;100.0;100610;;;;
2022/09/30 03:40:09;;;;;;;1.5;1.5;;;;;;;6.6;100.0;100610;;;;
2022/09/30 03:41:10;;;;;;;1.5;1.5;;;;;;;6.5;100.0;100610;;;;
2022/09/30 03:42:06;;;;;;;1.5;1.5;;;;;;;6.5;100.0;100610;;;;
2022/09/30 03:43:07;;;;;;;1.5;1.5;;;;;;;6.4;100.0;100610;;;;
2022/09/30 03:44:06;;;;;;;1.5;1.5;;;;;;;6.4;100.0;100610;;;;
2022/09/30 03:45:03;;;;;;;1.5;1.5;;;;;;;6.4;100.0;100610;;;;
2022/09/30 03:46:01;;;;;;;1.5;1.5;;;;;;;6.4;100.0;100600;;;;
2022/09/30 03:47:02;;;;;;;1.5;1.5;;;;;;;6.4;100.0;100600;;;;
2022/09/30 03:48:02;;;;;;;1.5;1.5;;;;;;;6.4;100.0;100600;;;;
2022/09/30 03:49:01;;;;;;;1.5;1.5;;;;;;;6.4;100.0;100600;;;;
2022/09/30 03:50:02;;;;;;;1.5;1.5;;;;;;;6.4;100.0;100610;;;;
2022/09/30 03:51:00;;;;;;;1.5;1.5;;;;;;;6.4;100.0;100610;;;;
2022/09/30 03:52:04;;;;;;;1.5;1.5;;;;;;;6.3;100.0;100600;;;;
2022/09/30 03:53:00;;;;;;;1.5;1.5;;;;;;;6.3;100.0;100600;;;;
2022/09/30 03:54:00;;;;;;;1.5;1.5;;;;;;;6.3;100.0;100610;;;;
2022/09/30 03:55:01;;;;;;;1.5;1.5;;;;;;;6.3;100.0;100610;;;;
2022/09/30 03:56:00;;;;;;;1.5;1.5;;;;;;;6.4;100.0;100610;;;;
2022/09/30 03:57:04;;;;;;;1.5;1.5;;;;;;;6.4;100.0;100610;;;;
2022/09/30 03:58:00;;;;;;;1.5;1.5;;;;;;;6.4;100.0;100610;;;;
2022/09/30 03:59:00;;;;;;;1.5;1.5;;;;;;;6.4;100.0;100610;;;;
2022/09/30 04:00:00;;;;;;;1.5;1.5;;;;;;;6.4;100.0;100610;;;;
2022/09/30 04:01:00;;;;;;;1.5;1.5;;;;;;;6.4;100.0;100610;;;;
2022/09/30 04:02:00;;;;;;;1.5;1.5;;;;;;;6.4;100.0;100610;;;;
2022/09/30 04:03:00;;;;;;;1.5;1.5;;;;;;;6.4;100.0;100610;;;;
2022/09/30 04:04:00;;;;;;;1.5;1.5;;;;;;;6.3;100.0;100610;;;;
2022/09/30 04:05:00;;;;;;;1.5;1.5;;;;;;;6.3;100.0;100610;;;;
2022/09/30 04:06:00;;;;;;;1.5;1.5;;;;;;;6.4;100.0;100620;;;;
2022/09/30 04:07:00;;;;;;;1.5;1.5;;;;;;;6.4;100.0;100620;;;;
2022/09/30 04:08:00;;;;;;;1.5;1.5;;;;;;;6.3;100.0;100620;;;;
2022/09/30 04:09:00;;;;;;;1.5;1.5;;;;;;;6.3;100.0;100620;;;;
2022/09/30 04:10:00;;;;;;;1.5;1.5;;;;;;;6.3;100.0;100630;;;;
2022/09/30 04:11:00;;;;;;;1.5;1.5;;;;;;;6.3;100.0;100630;;;;
2022/09/30 04:12:00;;;;;;;1.5;1.5;;;;;;;6.2;100.0;100640;;;;
2022/09/30 04:13:00;;;;;;;1.5;1.5;;;;;;;6.2;100.0;100640;;;;
2022/09/30 04:14:00;;;;;;;1.5;1.5;;;;;;;6.3;100.0;100640;;;;
2022/09/30 04:15:00;;;;;;;1.6;1.6;;;;;;;6.3;100.0;100640;;;;
2022/09/30 04:16:00;;;;;;;1.6;1.6;;;;;;;6.3;100.0;100640;;;;
2022/09/30 04:17:00;;;;;;;1.6;1.6;;;;;;;6.3;100.0;100640;;;;
2022/09/30 04:18:00;;;;;;;1.6;1.6;;;;;;;6.3;100.0;100650;;;;
2022/09/30 04:19:00;;;;;;;1.6;1.6;;;;;;;6.3;100.0;100650;;;;
2022/09/30 04:20:00;;;;;;;1.6;1.6;;;;;;;6.2;100.0;100650;;;;
2022/09/30 04:21:03;;;;;;;1.6;1.6;;;;;;;6.2;100.0;100650;;;;
2022/09/30 04:22:00;;;;;;;1.6;1.6;;;;;;;6.2;100.0;100660;;;;
2022/09/30 04:23:01;;;;;;;1.6;1.6;;;;;;;6.2;100.0;100660;;;;
2022/09/30 04:24:00;;;;;;;1.6;1.6;;;;;;;6.2;100.0;100660;;;;
2022/09/30 04:25:00;;;;;;;1.6;1.6;;;;;;;6.2;100.0;100660;;;;
2022/09/30 04:26:01;;;;;;;1.6;1.6;;;;;;;6.2;100.0;100670;;;;
2022/09/30 04:27:00;;;;;;;1.6;1.6;;;;;;;6.2;100.0;100670;;;;
2022/09/30 04:28:00;;;;;;;1.6;1.6;;;;;;;6.2;100.0;100670;;;;
2022/09/30 04:29:00;;;;;;;1.6;1.6;;;;;;;6.2;100.0;100670;;;;
2022/09/30 04:30:00;;;;;;;1.6;1.6;;;;;;;6.1;100.0;100680;;;;
2022/09/30 04:31:01;;;;;;;1.6;1.6;;;;;;;6.1;100.0;100680;;;;
2022/09/30 04:32:00;;;;;;;1.6;1.6;;;;;;;6.2;100.0;100680;;;;
2022/09/30 04:33:00;;;;;;;1.6;1.6;;;;;;;6.2;100.0;100680;;;;
2022/09/30 04:34:00;;;;;;;1.8;1.8;;;;;;;6.2;100.0;100680;;;;
2022/09/30 04:35:00;;;;;;;1.8;1.8;;;;;;;6.2;100.0;100680;;;;
2022/09/30 04:36:00;;;;;;;1.8;1.8;;;;;;;6.2;100.0;100680;;;;
2022/09/30 04:37:00;;;;;;;1.8;1.8;;;;;;;6.2;100.0;100680;;;;
2022/09/30 04:38:01;;;;;;;1.8;1.8;;;;;;;6.2;100.0;100680;;;;
2022/09/30 04:39:00;;;;;;;1.8;1.8;;;;;;;6.2;100.0;100680;;;;
2022/09/30 04:40:01;;;;;;;1.8;1.8;;;;;;;6.2;100.0;100680;;;;
2022/09/30 04:41:01;;;;;;;1.8;1.8;;;;;;;6.2;100.0;100680;;;;
2022/09/30 04:42:00;;;;;;;1.8;1.8;;;;;;;6.1;100.0;100680;;;;
2022/09/30 04:43:00;;;;;;;1.8;1.8;;;;;;;6.1;100.0;100680;;;;
2022/09/30 04:44:04;;;;;;;1.8;1.8;;;;;;;6.2;100.0;100670;;;;
2022/09/30 04:45:00;;;;;;;1.8;1.8;;;;;;;6.2;100.0;100670;;;;
2022/09/30 04:46:00;;;;;;;1.8;1.8;;;;;;;6.2;100.0;100670;;;;
2022/09/30 04:47:00;;;;;;;1.8;1.8;;;;;;;6.2;100.0;100670;;;;
2022/09/30 04:48:00;;;;;;;1.8;1.8;;;;;;;6.1;100.0;100680;;;;
2022/09/30 04:49:00;;;;;;;1.8;1.8;;;;;;;6.1;100.0;100680;;;;
2022/09/30 04:50:00;;;;;;;1.8;1.8;;;;;;;6.1;100.0;100680;;;;
2022/09/30 04:51:00;;;;;;;1.8;1.8;;;;;;;6.1;100.0;100680;;;;
2022/09/30 04:52:00;;;;;;;1.8;1.8;;;;;;;6.1;100.0;100680;;;;
2022/09/30 04:53:00;;;;;;;1.8;1.8;;;;;;;6.1;100.0;100680;;;;
2022/09/30 04:54:00;;;;;;;1.6;1.6;;;;;;;6.1;100.0;100680;;;;
2022/09/30 04:55:00;;;;;;;1.6;1.6;;;;;;;6.1;100.0;100680;;;;
2022/09/30 04:56:00;;;;;;;1.6;1.6;;;;;;;6.0;100.0;100680;;;;
2022/09/30 04:57:00;;;;;;;1.6;1.6;;;;;;;6.0;100.0;100680;;;;
2022/09/30 04:58:00;;;;;;;1.6;1.6;;;;;;;6.1;100.0;100690;;;;
2022/09/30 04:59:00;;;;;;;1.6;1.6;;;;;;;6.1;100.0;100690;;;;
2022/09/30 05:00:00;;;;;;;1.6;1.6;;;;;;;6.0;100.0;100690;;;;
2022/09/30 05:01:01;;;;;;;1.6;1.6;;;;;;;6.0;100.0;100690;;;;
2022/09/30 05:02:01;;;;;;;1.6;1.6;;;;;;;6.0;100.0;100690;;;;
2022/09/30 05:03:00;;;;;;;1.6;1.6;;;;;;;6.0;100.0;100690;;;;
2022/09/30 05:04:00;;;;;;;1.6;1.6;;;;;;;6.0;100.0;100690;;;;
2022/09/30 05:05:01;;;;;;;1.6;1.6;;;;;;;6.0;100.0;100690;;;;
2022/09/30 05:06:01;;;;;;;1.6;1.6;;;;;;;6.0;100.0;100700;;;;
2022/09/30 05:07:00;;;;;;;1.6;1.6;;;;;;;6.0;100.0;100700;;;;
2022/09/30 05:08:02;;;;;;;1.6;1.6;;;;;;;6.0;100.0;100700;;;;
2022/09/30 05:09:00;;;;;;;1.6;1.6;;;;;;;6.0;100.0;100700;;;;
2022/09/30 05:10:00;;;;;;;1.6;1.6;;;;;;;6.0;100.0;100700;;;;
2022/09/30 05:11:01;;;;;;;1.6;1.6;;;;;;;6.0;100.0;100700;;;;
2022/09/30 05:12:01;;;;;;;1.6;1.6;;;;;;;6.0;100.0;100700;;;;
2022/09/30 05:13:00;;;;;;;1.6;1.6;;;;;;;6.0;100.0;100700;;;;
2022/09/30 05:14:00;;;;;;;1.9;1.9;;;;;;;6.0;100.0;100700;;;;
2022/09/30 05:15:00;;;;;;;1.9;1.9;;;;;;;6.0;100.0;100700;;;;
2022/09/30 05:16:00;;;;;;;1.9;1.9;;;;;;;6.0;100.0;100700;;;;
2022/09/30 05:17:00;;;;;;;1.9;1.9;;;;;;;6.0;100.0;100700;;;;
2022/09/30 05:18:00;;;;;;;1.9;1.9;;;;;;;5.9;100.0;100700;;;;
2022/09/30 05:19:00;;;;;;;1.9;1.9;;;;;;;5.9;100.0;100700;;;;
2022/09/30 05:20:00;;;;;;;1.9;1.9;;;;;;;6.0;100.0;100700;;;;
2022/09/30 05:21:00;;;;;;;1.9;1.9;;;;;;;6.0;100.0;100700;;;;
2022/09/30 05:22:00;;;;;;;1.9;1.9;;;;;;;5.9;100.0;100700;;;;
2022/09/30 05:23:00;;;;;;;1.9;1.9;;;;;;;5.9;100.0;100700;;;;
2022/09/30 05:24:00;;;;;;;1.9;1.9;;;;;;;5.9;100.0;100710;;;;
2022/09/30 05:25:02;;;;;;;1.9;1.9;;;;;;;5.9;100.0;100710;;;;
2022/09/30 05:26:00;;;;;;;1.9;1.9;;;;;;;5.9;100.0;100710;;;;
2022/09/30 05:27:00;;;;;;;1.9;1.9;;;;;;;5.9;100.0;100710;;;;
2022/09/30 05:28:00;;;;;;;1.9;1.9;;;;;;;6.0;100.0;100720;;;;
2022/09/30 05:29:00;;;;;;;1.9;1.9;;;;;;;6.0;100.0;100720;;;;
2022/09/30 05:30:00;;;;;;;1.9;1.9;;;;;;;5.9;100.0;100710;;;;
2022/09/30 05:31:02;;;;;;;1.9;1.9;;;;;;;5.9;100.0;100710;;;;
2022/09/30 05:32:00;;;;;;;1.9;1.9;;;;;;;5.9;100.0;100710;;;;
2022/09/30 05:33:00;;;;;;;1.9;1.9;;;;;;;5.9;100.0;100710;;;;
2022/09/30 05:34:00;;;;;;;2.9;2.8;;;;;;;5.9;100.0;100710;;;;
2022/09/30 05:35:02;;;;;;;2.9;2.8;;;;;;;5.9;100.0;100710;;;;
2022/09/30 05:36:01;;;;;;;2.9;2.8;;;;;;;5.8;100.0;100710;;;;
2022/09/30 05:37:00;;;;;;;2.9;2.8;;;;;;;5.8;100.0;100710;;;;
2022/09/30 05:38:02;;;;;;;2.9;2.8;;;;;;;5.9;100.0;100710;;;;
2022/09/30 05:39:00;;;;;;;2.9;2.8;;;;;;;5.9;100.0;100710;;;;
2022/09/30 05:40:00;;;;;;;2.9;2.8;;;;;;;5.9;100.0;100710;;;;
2022/09/30 05:41:10;;;;;;;2.9;2.8;;;;;;;5.8;100.0;100710;;;;
2022/09/30 05:42:00;;;;;;;2.9;2.8;;;;;;;5.8;100.0;100710;;;;
2022/09/30 05:43:00;;;;;;;2.9;2.8;;;;;;;5.8;100.0;100710;;;;
2022/09/30 05:44:00;;;;;;;2.9;2.8;;;;;;;5.9;100.0;100720;;;;
2022/09/30 05:45:00;;;;;;;2.9;2.8;;;;;;;5.9;100.0;100720;;;;
2022/09/30 05:46:00;;;;;;;2.9;2.8;;;;;;;5.9;100.0;100720;;;;
2022/09/30 05:47:00;;;;;;;2.9;2.8;;;;;;;5.9;100.0;100720;;;;
2022/09/30 05:48:00;;;;;;;2.9;2.8;;;;;;;6.0;100.0;100730;;;;
2022/09/30 05:49:00;;;;;;;2.9;2.8;;;;;;;6.0;100.0;100730;;;;
2022/09/30 05:50:00;;;;;;;2.9;2.8;;;;;;;6.0;100.0;100740;;;;
2022/09/30 05:51:00;;;;;;;2.9;2.8;;;;;;;6.0;100.0;100740;;;;
2022/09/30 05:52:00;;;;;;;2.9;2.8;;;;;;;5.9;100.0;100740;;;;
2022/09/30 05:53:00;;;;;;;2.9;2.8;;;;;;;5.9;100.0;100740;;;;
2022/09/30 05:54:00;;;;;;;2.4;2.3;;;;;;;6.0;100.0;100750;;;;
2022/09/30 05:55:00;;;;;;;2.4;2.3;;;;;;;6.0;100.0;100750;;;;
2022/09/30 05:56:00;;;;;;;2.4;2.3;;;;;;;5.9;100.0;100750;;;;
2022/09/30 05:57:00;;;;;;;2.4;2.3;;;;;;;5.9;100.0;100750;;;;
2022/09/30 05:58:00;;;;;;;2.4;2.3;;;;;;;6.0;100.0;100750;;;;
2022/09/30 05:59:00;;;;;;;2.4;2.3;;;;;;;6.0;100.0;100750;;;;
2022/09/30 06:00:00;;;;;;;2.4;2.3;;;;;;;6.0;100.0;100750;;;;
2022/09/30 06:01:13;;;;;;;2.4;2.3;;;;;;;6.0;100.0;100750;;;;
2022/09/30 06:02:00;;;;;;;2.4;2.3;;;;;;;6.0;100.0;100750;;;;
2022/09/30 06:03:00;;;;;;;2.4;2.3;;;;;;;6.0;100.0;100750;;;;
2022/09/30 06:04:00;;;;;;;2.4;2.3;;;;;;;5.9;100.0;100760;;;;
2022/09/30 06:05:00;;;;;;;2.4;2.3;;;;;;;5.9;100.0;100760;;;;
2022/09/30 06:06:00;;;;;;;2.4;2.3;;;;;;;5.9;100.0;100760;;;;
2022/09/30 06:07:00;;;;;;;2.4;2.3;;;;;;;5.9;100.0;100760;;;;
2022/09/30 06:08:00;;;;;;;2.4;2.3;;;;;;;6.0;100.0;100760;;;;
2022/09/30 06:09:00;;;;;;;2.4;2.3;;;;;;;6.0;100.0;100760;;;;
2022/09/30 06:10:00;;;;;;;2.4;2.3;;;;;;;6.0;100.0;100760;;;;
2022/09/30 06:11:00;;;;;;;2.4;2.3;;;;;;;6.0;100.0;100760;;;;
2022/09/30 06:12:00;;;;;;;2.4;2.3;;;;;;;5.9;100.0;100760;;;;
2022/09/30 06:13:02;;;;;;;2.4;2.3;;;;;;;5.9;100.0;100760;;;;
2022/09/30 06:14:00;;;;;;;1.7;1.7;;;;;;;6.0;100.0;100760;;;;
2022/09/30 06:15:00;;;;;;;1.7;1.7;;;;;;;6.0;100.0;100760;;;;
2022/09/30 06:16:01;;;;;;;1.7;1.7;;;;;;;6.0;100.0;100760;;;;
2022/09/30 06:17:00;;;;;;;1.7;1.7;;;;;;;6.0;100.0;100760;;;;
2022/09/30 06:18:00;;;;;;;1.7;1.7;;;;;;;6.0;100.0;100760;;;;
2022/09/30 06:19:00;;;;;;;1.7;1.7;;;;;;;6.0;100.0;100760;;;;
2022/09/30 06:20:00;;;;;;;1.7;1.7;;;;;;;5.9;100.0;100770;;;;
2022/09/30 06:21:01;;;;;;;1.7;1.7;;;;;;;5.9;100.0;100770;;;;
2022/09/30 06:22:00;;;;;;;1.7;1.7;;;;;;;5.9;100.0;100770;;;;
2022/09/30 06:23:00;;;;;;;1.7;1.7;;;;;;;5.9;100.0;100770;;;;
2022/09/30 06:24:00;;;;;;;1.7;1.7;;;;;;;6.0;100.0;100770;;;;
2022/09/30 06:25:00;;;;;;;1.7;1.7;;;;;;;6.0;100.0;100770;;;;
2022/09/30 06:26:01;;;;;;;1.7;1.7;;;;;;;6.1;100.0;100780;;;;
2022/09/30 06:27:00;;;;;;;1.7;1.7;;;;;;;6.1;100.0;100780;;;;
2022/09/30 06:28:01;;;;;;;1.7;1.7;;;;;;;6.1;100.0;100770;;;;
2022/09/30 06:29:00;;;;;;;1.7;1.7;;;;;;;6.1;100.0;100770;;;;